Skip Navigation Links
NOAA logo - Click to go to the NOAA homepage
NOAA's National Weather Service
Alaska Aviation Weather Unit
  NWS logo - Click to go to the NWS homepage
Left Navbar Graphic     21 AKDT = 05 GMT

   
NOAA is celebrating 200 years of science, service, and stewardship. Visit the NOAA 200th celebration Web site to learn more.
USA.gov is the U.S. Government's official Web portal to all Federal, state and local government Web resources and services.
Facebook
NWS on Facebook

AAWU Home :: Display TAF Add Bookmark
TAF PAOR 262320Z 2700/2724 32004KT P6SM VCSH SCT040 BKN100
     FM270400 30004KT P6SM -SHRA BKN040 OVC060
     FM271800 32003KT P6SM OVC025=
METAR PAOR 262353Z VRB04KT 10SM BKN038 BKN046 BKN100 BKN200 11/01
     A2942=

METAR PAOR 270053Z 36006KT 10SM BKN041 BKN050 BKN100 BKN200 10/01
     A2942=

METAR PAOR 270153Z 01007KT 10SM SCT043 BKN060 BKN075 BKN200 11/01
     A2943=

METAR PAOR 270253Z 32007KT 10SM SCT043 BKN060 BKN075 BKN150 11/01
     A2943=

METAR PAOR 270353Z 30008KT 10SM SCT043 BKN060 BKN075 BKN150 08/01
     A2944=

METAR PAOR 270453Z VRB04KT 10SM SCT043 BKN060 BKN075 BKN150 07/01 A2946
     RMK AO2 SLP989 SH DSNT NE-S T00720011=


NOAA's National Weather Service
Alaska Aviation Weather Unit
6930 Sand Lake Road
Anchorage, AK 99502-1845
Disclaimer
Credits
Glossary
Privacy Policy
About Us
Career Opportunities
Contact AAWU Internet Services Site last modified: April, 17th 2012